Time;durP1;ratioP1;P1;durP2;ratioP2;P2;SDS_P1;SDS_P2;PMS_P1;PMS_P2;Temp;Humidity;BMP_temperature;BMP_pressure;BME280_temperature;BME280_humidity;BME280_pressure;Samples;Min_cycle;Max_cycle;Signal;HPM_P1;HPM_P2
2022/10/10 00:00:40;;;;;;;14.38;9.30;;;;;;;16.49;54.62;100380.44;5110022;28;20055;-41
2022/10/10 00:03:07;;;;;;;18.40;9.38;;;;;;;16.50;55.14;100385.56;5110461;28;20436;-41
2022/10/10 00:05:33;;;;;;;15.80;8.85;;;;;;;16.63;54.74;100395.31;5110286;28;20103;-43
2022/10/10 00:07:59;;;;;;;13.25;8.98;;;;;;;16.63;54.77;100408.75;5110302;28;20027;-41
2022/10/10 00:10:25;;;;;;;13.38;9.10;;;;;;;16.54;54.74;100400.19;5110084;28;20016;-41
2022/10/10 00:12:50;;;;;;;15.38;9.48;;;;;;;16.51;54.77;100403.34;5111068;28;20425;-41
2022/10/10 00:15:17;;;;;;;17.00;10.38;;;;;;;16.39;55.02;100403.28;5110968;28;20016;-44
2022/10/10 00:17:43;;;;;;;15.85;9.93;;;;;;;16.27;55.04;100407.75;5110762;28;20027;-41
2022/10/10 00:20:10;;;;;;;14.15;9.82;;;;;;;16.22;56.10;100403.06;5110858;28;20160;-41
2022/10/10 00:22:36;;;;;;;17.50;9.55;;;;;;;16.29;55.75;100407.53;5110855;28;20569;-43
2022/10/10 00:25:02;;;;;;;17.45;10.13;;;;;;;16.34;55.39;100408.50;5110946;28;20027;-42
2022/10/10 00:27:27;;;;;;;19.33;11.20;;;;;;;16.29;55.63;100421.78;5110901;28;20470;-42
2022/10/10 00:29:52;;;;;;;17.00;9.90;;;;;;;16.29;55.09;100424.47;5111298;28;20060;-42
2022/10/10 00:32:18;;;;;;;18.48;10.05;;;;;;;16.35;55.32;100420.88;5112419;28;20019;-42
2022/10/10 00:34:43;;;;;;;19.08;10.80;;;;;;;16.28;55.49;100425.53;5114286;28;20020;-42
2022/10/10 00:37:09;;;;;;;18.58;10.73;;;;;;;16.39;55.10;100423.94;5114591;28;20180;-42
2022/10/10 00:39:34;;;;;;;18.42;10.88;;;;;;;16.48;54.75;100427.97;5114395;28;20399;-42
2022/10/10 00:41:59;;;;;;;15.65;10.57;;;;;;;16.37;55.44;100431.41;5114238;28;20020;-42
2022/10/10 00:44:26;;;;;;;22.77;10.90;;;;;;;16.46;55.27;100434.63;5114308;28;20034;-42
2022/10/10 00:46:52;;;;;;;18.48;10.35;;;;;;;16.52;54.90;100439.06;5114284;28;20368;-42
2022/10/10 00:49:21;;;;;;;18.13;11.07;;;;;;;16.48;54.85;100433.34;5114313;28;20096;-42
2022/10/10 00:51:51;;;;;;;18.25;10.48;;;;;;;16.52;54.86;100425.66;5114257;28;20024;-42
2022/10/10 00:54:21;;;;;;;17.90;10.63;;;;;;;16.51;54.79;100429.41;5114209;28;20059;-42
2022/10/10 00:56:54;;;;;;;17.80;10.85;;;;;;;16.51;55.73;100432.91;5113977;28;20106;-42
2022/10/10 00:59:20;;;;;;;16.55;9.75;;;;;;;16.51;55.15;100415.97;5113921;28;20026;-42
2022/10/10 01:01:46;;;;;;;17.23;10.68;;;;;;;16.51;54.78;100426.72;5114154;28;20023;-42
2022/10/10 01:04:46;;;;;;;16.42;10.52;;;;;;;16.59;55.16;100424.50;5114387;28;20135;-42
2022/10/10 01:07:16;;;;;;;15.38;9.88;;;;;;;16.54;54.48;100427.06;5030808;28;20115;-42
2022/10/10 01:09:44;;;;;;;19.23;10.10;;;;;;;16.54;54.89;100434.28;5099032;28;20092;-42
2022/10/10 01:12:23;;;;;;;19.13;10.38;;;;;;;16.54;54.60;100431.59;5113800;27;20490;-43
2022/10/10 01:15:21;;;;;;;15.95;9.95;;;;;;;16.46;55.12;100426.56;5113732;28;20027;-42
2022/10/10 01:17:51;;;;;;;18.25;9.88;;;;;;;16.33;55.12;100430.22;5113804;28;20396;-42
2022/10/10 01:20:35;;;;;;;16.98;10.00;;;;;;;16.32;55.51;100437.47;5113686;28;20023;-42
2022/10/10 01:23:03;;;;;;;16.52;9.90;;;;;;;16.32;55.09;100440.16;5113380;28;20043;-41
2022/10/10 01:25:38;;;;;;;14.85;9.90;;;;;;;16.24;55.79;100437.78;5113499;28;20108;-41
2022/10/10 01:28:22;;;;;;;16.13;10.65;;;;;;;16.14;56.18;100438.25;5113943;28;20023;-41
2022/10/10 01:30:48;;;;;;;16.00;10.30;;;;;;;15.94;56.60;100443.03;5113624;28;20019;-41
2022/10/10 01:33:19;;;;;;;15.77;9.55;;;;;;;15.76;56.38;100447.34;5113925;28;20122;-41
2022/10/10 01:35:50;;;;;;;17.35;10.20;;;;;;;15.86;56.26;100446.00;5113463;28;20558;-43
2022/10/10 01:38:28;;;;;;;15.77;9.75;;;;;;;15.77;56.94;100446.28;5113247;28;20024;-42
2022/10/10 01:41:12;;;;;;;17.60;9.85;;;;;;;15.79;56.76;100446.06;5113030;28;20036;-41
2022/10/10 01:43:38;;;;;;;18.00;9.75;;;;;;;15.88;56.80;100446.59;5113065;28;20019;-41
2022/10/10 01:46:16;;;;;;;18.60;10.10;;;;;;;15.95;56.24;100458.91;5113096;28;20027;-42
2022/10/10 01:48:46;;;;;;;15.02;10.40;;;;;;;15.86;56.52;100446.84;5113114;28;20035;-43
2022/10/10 01:51:41;;;;;;;14.88;10.43;;;;;;;15.74;57.14;100456.63;5113714;28;20023;-43
2022/10/10 01:54:31;;;;;;;14.35;9.98;;;;;;;15.58;57.69;100457.97;5113081;28;20044;-43
2022/10/10 01:57:19;;;;;;;17.33;10.02;;;;;;;15.48;57.17;100458.47;5112723;28;20024;-42
2022/10/10 01:59:59;;;;;;;21.13;10.60;;;;;;;15.53;57.42;100465.84;5112798;28;20058;-42
2022/10/10 02:02:50;;;;;;;20.63;10.85;;;;;;;15.48;57.70;100466.53;5113189;28;20031;-42
2022/10/10 02:05:19;;;;;;;;;;;;;;;15.81;56.52;100470.81;5103927;28;20043;-42
2022/10/10 02:07:53;;;;;;;16.17;10.38;;;;;;;15.76;56.97;100466.13;5112785;28;20368;-42
2022/10/10 02:10:22;;;;;;;15.50;10.75;;;;;;;15.75;56.93;100469.84;5112092;28;20023;-43
2022/10/10 02:12:49;;;;;;;16.08;11.00;;;;;;;15.63;56.62;100469.69;5112698;28;20106;-43
2022/10/10 02:15:20;;;;;;;21.33;11.40;;;;;;;15.53;56.49;100472.03;5112405;28;20110;-42
2022/10/10 02:17:47;;;;;;;20.17;11.48;;;;;;;15.50;57.03;100467.13;5112574;28;20042;-42
2022/10/10 02:20:16;;;;;;;19.27;11.95;;;;;;;15.60;56.40;100480.03;5112486;28;20437;-42
2022/10/10 02:22:44;;;;;;;22.38;12.05;;;;;;;15.48;57.55;100479.94;5112187;28;20543;-42
2022/10/10 02:25:11;;;;;;;17.88;11.80;;;;;;;15.52;56.99;100478.44;5112390;28;20036;-43
2022/10/10 02:27:40;;;;;;;21.80;11.77;;;;;;;15.61;56.77;100476.31;5112824;28;20098;-42
2022/10/10 02:30:06;;;;;;;;;;;;;;;15.84;55.69;100473.06;5112758;28;20100;-42
2022/10/10 02:32:46;;;;;;;19.83;12.35;;;;;;;15.73;55.89;100473.75;5112544;28;20010;-42
2022/10/10 02:35:18;;;;;;;25.98;12.50;;;;;;;15.53;57.24;100472.03;5112436;28;20406;-42
2022/10/10 02:37:45;;;;;;;18.15;12.40;;;;;;;15.41;57.12;100469.25;5111934;28;20513;-42
2022/10/10 02:40:15;;;;;;;24.65;13.18;;;;;;;15.42;57.36;100472.72;5112053;28;20440;-42
2022/10/10 02:42:42;;;;;;;24.15;12.43;;;;;;;15.44;57.24;100473.38;5112194;28;20114;-42
2022/10/10 02:45:07;;;;;;;21.88;12.48;;;;;;;15.44;56.93;100476.84;5112046;28;20031;-43
2022/10/10 02:47:33;;;;;;;23.65;12.80;;;;;;;15.34;57.55;100486.41;5112050;28;20027;-42
2022/10/10 02:49:58;;;;;;;21.67;12.45;;;;;;;15.36;57.47;100485.16;5111679;28;20020;-40
2022/10/10 02:52:23;;;;;;;23.05;12.50;;;;;;;15.21;57.74;100487.31;5111924;28;20032;-42
2022/10/10 02:54:49;;;;;;;24.08;12.45;;;;;;;15.18;58.36;100485.09;5111499;28;20076;-42
2022/10/10 02:57:14;;;;;;;24.17;11.98;;;;;;;15.40;56.98;100491.75;5111782;28;20145;-42
2022/10/10 02:59:40;;;;;;;22.13;12.63;;;;;;;15.43;57.30;100491.28;5111638;28;20024;-42
2022/10/10 03:02:06;;;;;;;26.75;12.57;;;;;;;15.35;57.95;100490.75;5111505;28;20048;-42
2022/10/10 03:04:31;;;;;;;26.75;12.90;;;;;;;15.27;58.29;100497.19;5110435;28;20035;-42
2022/10/10 03:06:57;;;;;;;20.88;12.20;;;;;;;15.35;57.60;100507.66;5111538;28;20026;-42
2022/10/10 03:09:22;;;;;;;22.15;12.75;;;;;;;15.35;57.42;100507.66;5111632;28;20030;-42
2022/10/10 03:11:48;;;;;;;22.42;12.65;;;;;;;15.33;57.70;100507.06;5111517;28;20011;-42
2022/10/10 03:14:13;;;;;;;22.08;12.43;;;;;;;15.33;57.62;100507.06;5111622;28;20020;-42
2022/10/10 03:16:38;;;;;;;22.70;12.75;;;;;;;15.44;57.92;100509.03;5111520;28;20410;-42
2022/10/10 03:19:07;;;;;;;19.35;11.85;;;;;;;15.41;57.20;100503.28;5111506;28;20163;-42
2022/10/10 03:21:33;;;;;;;29.85;14.88;;;;;;;15.36;58.01;100509.28;5111453;28;20571;-43
2022/10/10 03:23:58;;;;;;;20.58;12.48;;;;;;;15.36;57.81;100497.75;5111638;28;20016;-42
2022/10/10 03:26:24;;;;;;;19.27;12.00;;;;;;;15.40;58.20;100502.47;5111177;28;20020;-43
2022/10/10 03:28:49;;;;;;;21.17;12.30;;;;;;;15.28;58.36;100509.56;5111212;28;20028;-42
2022/10/10 03:31:14;;;;;;;23.13;12.27;;;;;;;15.42;57.50;100516.50;5110980;28;20007;-42
2022/10/10 03:33:40;;;;;;;22.35;12.70;;;;;;;15.36;57.73;100513.84;5111208;28;20102;-42
2022/10/10 03:36:05;;;;;;;20.63;11.40;;;;;;;14.90;58.99;100456.78;5110411;28;20462;-42
2022/10/10 03:38:31;;;;;;;24.10;12.65;;;;;;;15.27;58.01;100510.59;5110896;28;20032;-47
2022/10/10 03:40:56;;;;;;;19.67;12.07;;;;;;;15.30;58.15;100512.03;5110679;28;20080;-48
2022/10/10 03:43:22;;;;;;;22.70;12.07;;;;;;;15.31;57.93;100514.50;5110669;28;20019;-48
2022/10/10 03:45:47;;;;;;;19.02;12.15;;;;;;;15.37;57.33;100510.94;5110575;28;20383;-48
2022/10/10 03:48:13;;;;;;;26.00;14.93;;;;;;;15.31;57.95;100505.63;5110630;28;20047;-47
2022/10/10 03:50:39;;;;;;;29.42;18.15;;;;;;;15.38;57.84;100498.34;5107912;28;20015;-48
2022/10/10 03:53:05;;;;;;;16.70;11.75;;;;;;;15.54;63.23;100507.75;5107873;28;20483;-47
2022/10/10 03:55:31;;;;;;;20.63;12.35;;;;;;;15.60;58.81;100510.38;5090787;28;20028;-47
2022/10/10 03:57:56;;;;;;;29.27;13.55;;;;;;;15.64;57.98;100511.56;5090596;28;20392;-47
2022/10/10 04:00:22;;;;;;;35.35;13.88;;;;;;;15.66;56.87;100514.03;5090776;28;20089;-48
2022/10/10 04:02:48;;;;;;;28.08;12.75;;;;;;;15.48;57.61;100509.44;5090927;28;20035;-48
2022/10/10 04:05:13;;;;;;;29.58;13.60;;;;;;;15.40;57.57;100515.88;5089983;28;20056;-48
2022/10/10 04:07:40;;;;;;;24.13;12.77;;;;;;;15.22;58.57;100521.97;5091976;28;20644;-43
2022/10/10 04:10:07;;;;;;;20.42;12.63;;;;;;;15.31;62.98;100517.19;5098346;28;20054;-43
2022/10/10 04:12:33;;;;;;;25.88;16.67;;;;;;;15.84;59.76;100524.06;5113284;28;20083;-41
2022/10/10 04:14:58;;;;;;;22.52;11.93;;;;;;;15.84;57.14;100521.38;5113927;28;20108;-42
2022/10/10 04:17:24;;;;;;;23.70;12.57;;;;;;;15.62;57.65;100523.56;5113959;28;20031;-42
2022/10/10 04:19:49;;;;;;;26.08;12.18;;;;;;;15.45;58.21;100529.44;5113885;28;20023;-42
2022/10/10 04:22:15;;;;;;;22.92;12.70;;;;;;;15.38;58.43;100522.47;5113749;28;20058;-43
2022/10/10 04:24:41;;;;;;;24.25;12.40;;;;;;;15.31;58.01;100527.91;5114116;27;20027;-43
2022/10/10 04:27:06;;;;;;;24.25;12.93;;;;;;;15.20;58.66;100528.59;5113186;28;20486;-45
2022/10/10 04:29:32;;;;;;;26.55;13.35;;;;;;;15.22;59.05;100527.31;5113602;28;20560;-42
2022/10/10 04:31:57;;;;;;;20.55;13.23;;;;;;;15.21;58.66;100528.38;5113962;28;20456;-45
2022/10/10 04:34:23;;;;;;;27.80;13.18;;;;;;;15.10;59.03;100521.00;5108812;28;20551;-44
2022/10/10 04:36:48;;;;;;;28.48;12.90;;;;;;;15.10;59.21;100525.53;5110170;28;20475;-42
2022/10/10 04:39:13;;;;;;;28.85;12.57;;;;;;;15.14;58.32;100532.13;5105822;28;20036;-43
2022/10/10 04:41:39;;;;;;;28.98;13.90;;;;;;;15.03;58.97;100541.66;5097391;28;20024;-43
2022/10/10 04:44:04;;;;;;;29.83;13.75;;;;;;;15.00;59.55;100537.56;5091761;28;20020;-43
2022/10/10 04:46:30;;;;;;;32.25;13.60;;;;;;;15.02;59.25;100545.34;5090780;28;20544;-41
2022/10/10 04:48:55;;;;;;;25.52;13.45;;;;;;;15.10;59.61;100541.59;5090360;28;20024;-42
2022/10/10 04:51:20;;;;;;;27.88;14.48;;;;;;;15.18;58.55;100542.19;5091138;28;20020;-43
2022/10/10 04:53:46;;;;;;;28.65;14.27;;;;;;;15.19;59.50;100540.31;5092372;28;20039;-44
2022/10/10 04:56:11;;;;;;;26.05;14.10;;;;;;;15.29;59.20;100545.22;5092187;28;20035;-43
2022/10/10 04:58:37;;;;;;;31.48;13.68;;;;;;;15.24;59.47;100551.25;5091173;28;20425;-42
2022/10/10 05:01:03;;;;;;;23.67;14.15;;;;;;;15.24;59.36;100553.91;5096330;28;20053;-42
2022/10/10 05:03:28;;;;;;;26.58;13.65;;;;;;;15.42;59.58;100561.22;5109472;28;20424;-43
2022/10/10 05:05:54;;;;;;;33.33;13.68;;;;;;;15.62;58.63;100563.81;5108563;28;20080;-42
2022/10/10 05:08:19;;;;;;;30.20;12.93;;;;;;;15.86;58.44;100558.69;5108854;28;20020;-41
2022/10/10 05:10:45;;;;;;;27.00;14.25;;;;;;;16.18;57.36;100565.69;5098426;28;20158;-43
2022/10/10 05:13:13;;;;;;;29.27;13.85;;;;;;;16.44;56.69;100576.38;5109356;28;20027;-43
2022/10/10 05:15:39;;;;;;;27.10;12.98;;;;;;;16.65;56.12;100580.50;5103113;28;20050;-41
2022/10/10 05:18:05;;;;;;;29.10;13.73;;;;;;;17.03;54.90;100580.31;5110164;28;20420;-42
2022/10/10 05:20:32;;;;;;;23.95;12.88;;;;;;;17.32;54.37;100583.25;5112714;28;20416;-41
2022/10/10 05:22:57;;;;;;;23.38;12.40;;;;;;;17.56;53.67;100581.47;5112829;28;20182;-42
2022/10/10 05:25:23;;;;;;;26.13;12.45;;;;;;;17.74;53.40;100576.03;5112526;28;20069;-41
2022/10/10 05:27:48;;;;;;;27.90;12.40;;;;;;;18.10;52.86;100578.78;5112509;28;20030;-41
2022/10/10 05:30:14;;;;;;;23.88;12.82;;;;;;;18.47;51.70;100579.41;5109346;28;20019;-36
2022/10/10 05:32:40;;;;;;;27.77;12.85;;;;;;;18.80;50.91;100596.84;5111813;28;20031;-36
2022/10/10 05:35:06;;;;;;;25.25;12.38;;;;;;;18.99;50.23;100592.13;5112392;28;20106;-36
2022/10/10 05:37:32;;;;;;;27.60;13.02;;;;;;;19.22;50.05;100593.13;5109221;28;20034;-37
2022/10/10 05:39:57;;;;;;;25.38;13.18;;;;;;;19.69;48.80;100590.22;5112130;28;20114;-36
2022/10/10 05:42:23;;;;;;;27.17;12.40;;;;;;;20.13;47.79;100595.00;5112528;28;20356;-36
2022/10/10 05:44:49;;;;;;;32.70;12.55;;;;;;;20.37;47.17;100599.19;5112456;28;20015;-41
2022/10/10 05:47:14;;;;;;;27.02;12.07;;;;;;;20.63;46.40;100603.06;5111876;27;20042;-42
2022/10/10 05:49:40;;;;;;;23.02;11.73;;;;;;;20.92;45.39;100610.22;5112247;28;20031;-43
2022/10/10 05:52:05;;;;;;;32.00;12.38;;;;;;;21.23;43.85;100622.25;5111012;28;20125;-44
2022/10/10 05:54:31;;;;;;;31.02;11.88;;;;;;;21.18;44.26;100608.63;5112088;28;20023;-40
2022/10/10 05:56:56;;;;;;;29.33;12.75;;;;;;;21.45;43.98;100609.50;5111874;28;20020;-43
2022/10/10 05:59:22;;;;;;;28.63;12.10;;;;;;;21.43;43.46;100608.09;5112029;28;20027;-41
2022/10/10 06:01:47;;;;;;;26.08;12.07;;;;;;;21.71;42.36;100614.38;5111616;28;20032;-36
2022/10/10 06:04:12;;;;;;;24.27;12.00;;;;;;;21.70;43.08;100616.25;5111663;28;20117;-36
2022/10/10 06:06:38;;;;;;;23.15;12.05;;;;;;;22.13;42.16;100630.72;5111928;28;20123;-42
2022/10/10 06:09:03;;;;;;;20.38;11.77;;;;;;;22.48;40.58;100626.66;5111772;28;20435;-43
2022/10/10 06:11:29;;;;;;;18.70;11.77;;;;;;;21.90;41.76;100636.50;5111675;28;20137;-37
2022/10/10 06:13:55;;;;;;;22.30;12.30;;;;;;;22.02;41.54;100624.41;5112607;28;20034;-36
2022/10/10 06:16:22;;;;;;;19.13;11.90;;;;;;;22.09;42.04;100623.38;5112170;28;20035;-35
2022/10/10 06:18:48;;;;;;;23.77;11.25;;;;;;;22.63;40.47;100631.38;5111610;28;20020;-36
2022/10/10 06:21:14;;;;;;;25.48;12.38;;;;;;;22.95;39.90;100620.41;5111174;28;20046;-36
2022/10/10 06:23:40;;;;;;;26.48;11.52;;;;;;;23.11;39.46;100628.66;5111405;28;20028;-36
2022/10/10 06:26:06;;;;;;;24.83;12.20;;;;;;;23.31;39.41;100628.72;5111597;28;20042;-36
2022/10/10 06:28:32;;;;;;;23.55;11.80;;;;;;;23.41;38.79;100638.81;5111781;28;20475;-36
2022/10/10 06:31:04;;;;;;;21.83;11.40;;;;;;;23.83;38.22;100635.09;5110795;28;20023;-36
2022/10/10 06:33:29;;;;;;;23.80;11.43;;;;;;;24.12;37.25;100627.25;5111480;28;20384;-36
2022/10/10 06:35:55;;;;;;;25.45;11.73;;;;;;;24.40;37.16;100625.03;5111479;28;20043;-36
2022/10/10 06:38:20;;;;;;;22.83;11.20;;;;;;;24.20;37.00;100621.25;5111544;28;20035;-36
2022/10/10 06:40:46;;;;;;;23.00;11.80;;;;;;;24.23;36.93;100630.75;5110972;28;20024;-36
2022/10/10 06:43:13;;;;;;;25.38;12.73;;;;;;;23.58;37.87;100628.50;5111081;28;20103;-36
2022/10/10 06:45:41;;;;;;;21.02;11.77;;;;;;;23.88;37.34;100626.16;5111323;28;20452;-37
2022/10/10 06:48:07;;;;;;;29.67;12.48;;;;;;;24.22;37.15;100628.31;5111288;28;20026;-36
2022/10/10 06:50:33;;;;;;;29.25;12.85;;;;;;;24.61;36.38;100639.44;5111293;28;20027;-37
2022/10/10 06:52:59;;;;;;;24.92;12.00;;;;;;;24.86;35.89;100633.09;5110917;28;20034;-36
2022/10/10 06:55:25;;;;;;;20.70;10.93;;;;;;;24.83;35.50;100632.84;5110747;28;20032;-36
2022/10/10 06:57:50;;;;;;;29.23;11.05;;;;;;;25.16;35.36;100634.91;5110680;28;20076;-36
2022/10/10 07:00:16;;;;;;;29.48;13.35;;;;;;;25.27;34.66;100624.81;5110988;28;20034;-36
2022/10/10 07:02:42;;;;;;;21.58;11.43;;;;;;;25.45;34.29;100628.78;5110535;28;20042;-36
2022/10/10 07:05:12;;;;;;;20.90;11.07;;;;;;;25.32;34.20;100630.25;5110892;28;20066;-36
2022/10/10 07:07:38;;;;;;;25.50;11.35;;;;;;;25.25;34.52;100635.16;5110337;28;20028;-36
2022/10/10 07:10:05;;;;;;;27.27;11.63;;;;;;;25.13;34.88;100635.47;5110947;28;20103;-36
2022/10/10 07:12:31;;;;;;;22.02;10.88;;;;;;;25.60;34.37;100636.06;5110830;28;20031;-37
2022/10/10 07:14:56;;;;;;;23.92;10.93;;;;;;;25.85;33.75;100632.34;5111035;28;20027;-36
2022/10/10 07:17:21;;;;;;;18.17;9.38;;;;;;;25.87;33.65;100645.69;5110893;28;20027;-36
2022/10/10 07:19:47;;;;;;;15.30;8.80;;;;;;;25.36;34.04;100642.19;5110128;28;20395;-36
2022/10/10 07:22:13;;;;;;;16.52;8.77;;;;;;;25.52;34.05;100645.66;5110408;28;20039;-36
2022/10/10 07:24:38;;;;;;;19.08;9.23;;;;;;;25.69;33.88;100647.19;5110498;28;20034;-37
2022/10/10 07:27:04;;;;;;;15.80;9.38;;;;;;;25.27;34.59;100637.63;5110305;28;20032;-37
2022/10/10 07:29:29;;;;;;;12.60;8.43;;;;;;;25.23;34.43;100640.09;5110164;28;20020;-35
2022/10/10 07:31:56;;;;;;;15.77;8.77;;;;;;;25.45;34.34;100636.16;5108944;28;20046;-37
2022/10/10 07:34:21;;;;;;;17.20;9.68;;;;;;;24.95;34.76;100636.88;5109974;28;20131;-36
2022/10/10 07:36:49;;;;;;;16.52;8.75;;;;;;;24.71;35.29;100641.31;5109931;28;20089;-36
2022/10/10 07:39:21;;;;;;;16.17;9.32;;;;;;;24.31;36.19;100640.28;5110270;28;20383;-36
2022/10/10 07:41:47;;;;;;;15.65;9.27;;;;;;;23.49;37.74;100651.03;5112944;28;20027;-36
2022/10/10 07:44:12;;;;;;;10.73;7.78;;;;;;;22.48;40.09;100648.34;5114470;28;20069;-36
2022/10/10 07:46:38;;;;;;;12.40;7.78;;;;;;;23.03;38.94;100640.84;5114481;28;20094;-35
2022/10/10 07:49:03;;;;;;;13.80;7.60;;;;;;;23.86;37.69;100650.06;5114603;28;20020;-36
2022/10/10 07:51:29;;;;;;;13.43;7.72;;;;;;;23.62;38.34;100645.09;5114554;28;20098;-36
2022/10/10 07:53:54;;;;;;;14.98;7.82;;;;;;;23.80;37.91;100652.78;5114506;28;20028;-36
2022/10/10 07:56:20;;;;;;;14.77;7.75;;;;;;;23.34;38.71;100641.78;5113923;28;20030;-36
2022/10/10 07:58:45;;;;;;;13.45;7.75;;;;;;;23.58;38.71;100644.00;5114058;28;20543;-36
2022/10/10 08:01:11;;;;;;;16.45;8.45;;;;;;;24.03;37.91;100639.75;5113904;27;20027;-36
2022/10/10 08:03:38;;;;;;;14.15;8.25;;;;;;;23.02;39.54;100647.31;5113627;28;20103;-36
2022/10/10 08:06:10;;;;;;;14.07;8.63;;;;;;;23.22;39.28;100650.13;5113777;28;20454;-36
2022/10/10 08:08:35;;;;;;;13.35;8.60;;;;;;;22.69;40.65;100652.00;5113644;28;20035;-36
2022/10/10 08:11:04;;;;;;;14.98;8.75;;;;;;;22.51;40.84;100647.03;5113513;28;20016;-35
2022/10/10 08:13:30;;;;;;;10.93;8.30;;;;;;;22.64;40.88;100650.09;5113880;28;20023;-35
2022/10/10 08:15:55;;;;;;;14.73;8.52;;;;;;;23.25;39.65;100643.38;5113982;28;20027;-35
2022/10/10 08:18:21;;;;;;;16.17;8.50;;;;;;;23.69;38.73;100645.66;5111989;28;20341;-36
2022/10/10 08:20:46;;;;;;;12.77;8.23;;;;;;;24.30;37.71;100650.34;5112973;28;20031;-36
2022/10/10 08:23:12;;;;;;;15.15;8.68;;;;;;;23.74;38.57;100645.69;5113611;28;20411;-37
2022/10/10 08:25:37;;;;;;;18.35;8.88;;;;;;;23.49;39.21;100640.19;5113253;28;20023;-36
2022/10/10 08:28:03;;;;;;;14.60;8.68;;;;;;;22.98;40.47;100636.19;5113273;28;20110;-35
2022/10/10 08:30:28;;;;;;;15.55;8.77;;;;;;;22.95;40.33;100630.47;5113079;28;20035;-36
2022/10/10 08:32:54;;;;;;;16.63;8.80;;;;;;;22.78;40.97;100636.06;5113087;28;20024;-36
2022/10/10 08:35:19;;;;;;;14.90;8.18;;;;;;;22.93;40.67;100627.19;5113802;28;20136;-35
2022/10/10 08:37:45;;;;;;;12.75;8.02;;;;;;;23.33;40.12;100633.91;5112774;28;20710;-35
2022/10/10 08:40:20;;;;;;;12.68;8.40;;;;;;;23.71;39.22;100637.25;5113076;28;20490;-36
2022/10/10 08:42:51;;;;;;;19.48;7.70;;;;;;;23.59;39.37;100619.28;5113090;28;20027;-36
2022/10/10 08:45:22;;;;;;;11.40;8.15;;;;;;;23.96;38.75;100625.59;5109617;28;20042;-36
2022/10/10 08:48:05;;;;;;;14.85;8.30;;;;;;;23.35;39.64;100629.00;5112396;28;20015;-36
2022/10/10 08:50:45;;;;;;;11.80;7.93;;;;;;;23.58;39.41;100627.72;5112880;28;20026;-36
2022/10/10 08:53:31;;;;;;;12.73;7.05;;;;;;;23.66;39.16;100627.16;5111744;28;20110;-36
2022/10/10 08:55:56;;;;;;;14.15;7.80;;;;;;;22.92;40.16;100615.50;5110688;28;20547;-36
2022/10/10 08:58:42;;;;;;;13.75;8.07;;;;;;;23.18;39.66;100616.47;5112140;28;20107;-37
2022/10/10 09:01:14;;;;;;;9.35;6.93;;;;;;;23.39;39.37;100622.78;5112139;28;20060;-36
2022/10/10 09:03:52;;;;;;;11.38;6.57;;;;;;;23.22;39.51;100611.31;5112036;28;20144;-36
2022/10/10 09:06:40;;;;;;;12.20;6.25;;;;;;;23.15;39.85;100618.88;5112280;28;20066;-36
2022/10/10 09:09:23;;;;;;;8.27;5.70;;;;;;;22.64;40.54;100620.25;5111705;28;20475;-36
2022/10/10 09:12:00;;;;;;;8.80;5.82;;;;;;;22.43;40.68;100624.75;5109729;28;20514;-36
2022/10/10 09:14:47;;;;;;;9.00;5.95;;;;;;;21.57;42.19;100622.91;5111779;28;20020;-42
2022/10/10 09:17:20;;;;;;;10.32;6.40;;;;;;;21.78;42.12;100621.22;5112693;28;20534;-42
2022/10/10 09:20:12;;;;;;;9.18;5.93;;;;;;;22.39;40.98;100614.66;5113028;28;20023;-45
2022/10/10 09:22:52;;;;;;;7.75;5.45;;;;;;;22.65;40.23;100607.50;5112887;28;20051;-44
2022/10/10 09:25:22;;;;;;;7.80;5.28;;;;;;;23.05;39.71;100622.38;5113048;28;20115;-45
2022/10/10 09:28:02;;;;;;;7.72;5.50;;;;;;;23.08;39.46;100604.78;5112202;28;20034;-43
2022/10/10 09:30:30;;;;;;;9.90;5.65;;;;;;;23.53;38.77;100608.69;5113096;28;20023;-43
2022/10/10 09:33:16;;;;;;;9.23;5.53;;;;;;;23.30;39.35;100601.84;5112771;28;20095;-42
2022/10/10 09:35:43;;;;;;;9.90;5.78;;;;;;;23.71;38.47;100605.44;5110202;28;20047;-45
2022/10/10 09:38:31;;;;;;;11.15;5.57;;;;;;;24.24;37.03;100604.38;5110522;28;20043;-43
2022/10/10 09:41:02;;;;;;;11.73;5.05;;;;;;;23.40;38.79;100599.16;5108709;28;20047;-43
2022/10/10 09:43:32;;;;;;;11.02;5.57;;;;;;;23.87;38.11;100595.44;5110277;27;20084;-43
2022/10/10 09:45:58;;;;;;;15.75;6.00;;;;;;;23.48;38.85;100605.97;5110395;28;20181;-43
2022/10/10 09:48:37;;;;;;;15.25;5.90;;;;;;;23.26;39.45;100589.88;5110553;28;20023;-42
2022/10/10 09:51:06;;;;;;;7.75;5.68;;;;;;;23.27;39.13;100578.75;5110307;28;20188;-44
2022/10/10 09:53:32;;;;;;;9.93;5.20;;;;;;;23.50;38.66;100582.88;5110773;28;20219;-43
2022/10/10 09:55:58;;;;;;;11.13;5.50;;;;;;;23.20;39.34;100594.47;5110870;28;20349;-41
2022/10/10 09:58:44;;;;;;;15.82;5.40;;;;;;;23.13;39.19;100567.59;5110922;28;20390;-44
2022/10/10 10:01:20;;;;;;;12.30;5.45;;;;;;;23.41;38.82;100569.00;5111235;28;20051;-42
2022/10/10 10:04:17;;;;;;;10.15;5.40;;;;;;;23.56;38.68;100578.28;5111893;28;20019;-43
2022/10/10 10:06:49;;;;;;;11.23;5.30;;;;;;;23.79;38.44;100571.53;5111507;28;20030;-42
2022/10/10 10:09:18;;;;;;;10.77;5.90;;;;;;;23.75;38.07;100582.09;5111502;28;20138;-44
2022/10/10 10:11:47;;;;;;;13.13;5.50;;;;;;;23.69;38.53;100569.59;5111353;28;20448;-43
2022/10/10 10:14:26;;;;;;;11.38;5.15;;;;;;;23.79;37.86;100571.53;5111590;28;20096;-42
2022/10/10 10:16:54;;;;;;;8.13;5.13;;;;;;;23.89;37.85;100573.41;5111528;27;20020;-42
2022/10/10 10:19:43;;;;;;;7.43;4.90;;;;;;;23.71;38.22;100572.03;5111446;28;20093;-43
2022/10/10 10:22:36;;;;;;;7.35;4.93;;;;;;;24.17;37.22;100574.75;5111102;28;20086;-44
2022/10/10 10:25:31;;;;;;;9.82;5.10;;;;;;;23.67;38.64;100579.09;5111114;28;20093;-43
2022/10/10 10:28:12;;;;;;;10.48;5.32;;;;;;;23.91;37.47;100568.53;5111040;28;20112;-45
2022/10/10 10:30:38;;;;;;;9.35;5.10;;;;;;;23.95;37.19;100564.16;5111206;28;20023;-44
2022/10/10 10:33:22;;;;;;;12.88;5.30;;;;;;;24.11;37.40;100554.13;5110913;28;20127;-43
2022/10/10 10:36:07;;;;;;;10.50;5.28;;;;;;;23.97;37.82;100553.84;5111129;28;20038;-44
2022/10/10 10:38:47;;;;;;;11.15;5.28;;;;;;;23.84;37.75;100538.09;5110849;28;20498;-43
2022/10/10 10:41:43;;;;;;;16.88;5.10;;;;;;;23.73;37.97;100548.94;5110549;28;20024;-44
2022/10/10 10:44:31;;;;;;;8.38;5.45;;;;;;;23.84;37.76;100541.63;5110533;28;20447;-45
2022/10/10 10:47:15;;;;;;;12.65;5.13;;;;;;;24.69;36.38;100534.66;5110659;28;20352;-43
2022/10/10 10:50:04;;;;;;;8.52;5.10;;;;;;;25.44;35.32;100545.44;5110552;28;20028;-47
2022/10/10 10:52:54;;;;;;;15.10;5.70;;;;;;;25.22;35.38;100536.84;5110388;28;20531;-42
2022/10/10 10:55:42;;;;;;;19.25;5.78;;;;;;;24.88;35.74;100543.00;5110307;28;20111;-43
2022/10/10 10:58:10;;;;;;;9.18;5.15;;;;;;;25.20;34.97;100534.41;5110723;28;20431;-43
2022/10/10 11:00:51;;;;;;;11.18;5.07;;;;;;;23.95;37.10;100528.84;5110448;28;20395;-44
2022/10/10 11:03:47;;;;;;;11.73;5.30;;;;;;;24.47;36.54;100521.41;5109780;28;20026;-44
2022/10/10 11:06:43;;;;;;;9.80;5.15;;;;;;;24.32;36.32;100519.53;5110349;28;20023;-44
2022/10/10 11:09:41;;;;;;;11.57;5.30;;;;;;;23.64;37.73;100517.16;5110570;28;20023;-44
2022/10/10 11:12:40;;;;;;;14.93;5.50;;;;;;;24.03;36.89;100505.72;5096493;28;20464;-43
2022/10/10 11:15:31;;;;;;;10.13;5.53;;;;;;;23.96;36.86;100509.53;5110385;28;20118;-42
2022/10/10 11:18:17;;;;;;;7.80;4.95;;;;;;;23.81;36.97;100509.56;5110639;28;20035;-45
2022/10/10 11:20:49;;;;;;;10.40;5.43;;;;;;;24.29;36.91;100501.03;5110303;28;20552;-42
2022/10/10 11:23:23;;;;;;;9.88;5.75;;;;;;;24.86;35.81;100507.09;5090424;28;20031;-43
2022/10/10 11:25:55;;;;;;;10.07;5.63;;;;;;;24.11;36.92;100497.03;5090088;28;20103;-43
2022/10/10 11:28:27;;;;;;;9.57;5.80;;;;;;;24.42;36.50;100503.16;5090354;28;20028;-45